Time;durP1;ratioP1;P1;durP2;ratioP2;P2;SDS_P1;SDS_P2;PMS_P1;PMS_P2;Temp;Humidity;BMP_temperature;BMP_pressure;BME280_temperature;BME280_humidity;BME280_pressure;Samples;Min_cycle;Max_cycle;Signal;HPM_P1;HPM_P2
2023/07/17 00:13:31;;;;;;;6.53;2.67;;;;;;;21.08;55.45;100192.25;30868321;28;100004;-66
2023/07/17 00:28:31;;;;;;;4.27;2.03;;;;;;;20.77;57.18;100170.75;30965100;28;103237;-66
2023/07/17 00:43:32;;;;;;;4.17;2.20;;;;;;;20.51;57.77;100192.88;30988264;28;112264;-67
2023/07/17 00:58:32;;;;;;;4.93;2.80;;;;;;;20.10;59.35;100207.06;30987665;28;108489;-66
2023/07/17 01:13:43;;;;;;;3.30;2.00;;;;;;;20.07;60.75;100214.84;30987102;28;96999;-68
2023/07/17 01:28:44;;;;;;;5.17;2.53;;;;;;;20.12;61.78;100228.50;30984820;28;97421;-67
2023/07/17 01:43:45;;;;;;;3.53;2.33;;;;;;;20.17;63.26;100217.78;30983682;28;97561;-67
2023/07/17 01:58:45;;;;;;;4.87;2.67;;;;;;;19.91;64.21;100279.31;30981654;28;97500;-67
2023/07/17 02:13:46;;;;;;;5.77;2.50;;;;;;;19.44;66.13;100271.81;30981562;28;108408;-66
2023/07/17 02:28:46;;;;;;;4.60;2.50;;;;;;;19.54;67.36;100309.09;30979083;28;103892;-68
2023/07/17 02:43:46;;;;;;;5.73;2.50;;;;;;;19.67;68.11;100312.69;30977154;28;111660;-66
2023/07/17 02:58:48;;;;;;;8.27;4.13;;;;;;;19.52;68.35;100342.81;30982106;28;106719;-67
2023/07/17 03:13:49;;;;;;;6.80;3.27;;;;;;;19.14;69.94;100339.28;30997037;28;97533;-66
2023/07/17 03:28:49;;;;;;;5.70;3.20;;;;;;;18.98;70.92;100285.88;30995228;28;96747;-66
2023/07/17 03:43:49;;;;;;;10.60;3.42;;;;;;;18.97;71.71;100276.09;30993015;28;102789;-67
2023/07/17 03:58:50;;;;;;;5.25;3.08;;;;;;;19.10;72.01;100252.47;30990393;28;96661;-66
2023/07/17 04:13:52;;;;;;;6.57;3.40;;;;;;;19.37;72.21;100245.94;30988493;28;96676;-67
2023/07/17 04:28:52;;;;;;;6.43;3.60;;;;;;;19.52;72.52;100224.75;30988126;28;97240;-66
2023/07/17 04:43:53;;;;;;;9.73;4.13;;;;;;;19.88;72.54;100262.75;30861224;28;98579;-71
2023/07/17 04:58:53;;;;;;;8.30;3.50;;;;;;;20.26;72.39;100285.91;30837962;28;117944;-67
2023/07/17 05:13:53;;;;;;;5.60;3.37;;;;;;;20.59;72.10;100295.38;30838662;28;97584;-70
2023/07/17 05:28:54;;;;;;;6.80;4.33;;;;;;;20.96;71.85;100304.09;30842697;28;98401;-69
2023/07/17 05:43:54;;;;;;;6.67;3.07;;;;;;;21.35;70.79;100295.47;30857636;28;97071;-68
2023/07/17 05:58:54;;;;;;;7.43;3.00;;;;;;;21.98;70.63;100282.06;30835279;28;108503;-68
2023/07/17 06:13:55;;;;;;;7.35;3.13;;;;;;;22.90;69.38;100271.88;30829627;28;97089;-68
2023/07/17 06:28:55;;;;;;;;;;;;;;;24.05;66.11;100270.25;30831593;28;97435;-68
2023/07/17 06:43:55;;;;;;;5.85;2.35;;;;;;;25.04;62.96;100260.88;30831994;28;98441;-66
2023/07/17 06:58:56;;;;;;;6.82;3.13;;;;;;;25.81;59.18;100259.25;30827242;28;114072;-70
2023/07/17 07:13:56;;;;;;;6.43;2.50;;;;;;;26.97;56.83;100246.94;30828280;28;112094;-66
2023/07/17 07:28:56;;;;;;;5.20;2.22;;;;;;;27.87;52.54;100252.50;30829086;28;99110;-66
2023/07/17 07:43:57;;;;;;;7.00;2.10;;;;;;;27.33;49.30;100276.88;30840380;28;97789;-66
2023/07/17 07:58:57;;;;;;;7.70;2.42;;;;;;;26.51;51.37;100316.13;30850635;28;97717;-68
2023/07/17 08:13:58;;;;;;;6.37;2.57;;;;;;;25.95;52.99;100319.59;30843771;28;97965;-67
2023/07/17 08:29:00;;;;;;;5.18;2.80;;;;;;;25.45;55.44;100304.72;30843527;28;109643;-69
2023/07/17 08:44:01;;;;;;;4.93;2.70;;;;;;;25.34;56.75;100317.47;30828646;28;97901;-67
2023/07/17 08:59:03;;;;;;;3.75;2.88;;;;;;;26.42;55.69;100333.31;30837012;28;97216;-67
2023/07/17 09:14:07;;;;;;;7.33;3.10;;;;;;;26.50;55.43;100324.59;30847095;28;97124;-68
2023/07/17 09:29:07;;;;;;;5.00;2.50;;;;;;;27.92;52.55;100304.47;30846717;28;97407;-67
2023/07/17 09:44:08;;;;;;;6.95;2.55;;;;;;;29.36;48.18;100300.47;30843155;28;98970;-67
2023/07/17 09:59:16;;;;;;;7.28;2.67;;;;;;;30.86;43.39;100270.66;30840537;28;97227;-68
2023/07/17 10:14:17;;;;;;;5.67;2.10;;;;;;;32.13;36.69;100278.41;30871873;28;97141;-68
2023/07/17 10:29:31;;;;;;;6.27;2.40;;;;;;;33.11;32.77;100268.41;30868662;28;96896;-68
2023/07/17 10:44:34;;;;;;;5.43;2.30;;;;;;;34.06;30.69;100246.72;30862684;28;96710;-68
2023/07/17 10:59:35;;;;;;;6.30;2.50;;;;;;;34.70;29.78;100237.59;30859249;28;96712;-67
2023/07/17 11:14:35;;;;;;;6.05;2.60;;;;;;;34.55;30.36;100204.97;30871792;28;96752;-66
2023/07/17 11:29:39;;;;;;;4.32;2.45;;;;;;;34.13;29.06;100199.25;30872098;28;97983;-67
2023/07/17 11:44:40;;;;;;;5.27;2.40;;;;;;;35.78;27.22;100185.59;30883876;28;97314;-67
2023/07/17 11:59:45;;;;;;;7.22;2.30;;;;;;;37.61;23.78;100180.75;30876830;28;113528;-66
2023/07/17 12:14:46;;;;;;;6.50;2.40;;;;;;;39.48;21.21;100187.28;30869832;28;97378;-66
2023/07/17 12:29:46;;;;;;;6.90;2.87;;;;;;;38.66;20.93;100182.31;30860228;28;97689;-70
2023/07/17 12:44:46;;;;;;;9.43;3.08;;;;;;;37.47;21.71;100195.03;30858084;28;97449;-68
2023/07/17 12:59:47;;;;;;;6.47;2.70;;;;;;;36.58;22.48;100158.59;30857635;28;97246;-66
2023/07/17 13:14:47;;;;;;;6.07;3.00;;;;;;;35.25;23.65;100154.75;30854007;28;114154;-67
2023/07/17 13:29:47;;;;;;;8.40;2.80;;;;;;;35.01;24.23;100153.47;30826976;28;97449;-67
2023/07/17 13:44:48;;;;;;;6.65;2.95;;;;;;;34.53;23.88;100150.00;30845962;28;113587;-67
2023/07/17 13:59:48;;;;;;;4.30;2.88;;;;;;;34.23;24.36;100129.81;30844351;28;107166;-67
2023/07/17 14:14:48;;;;;;;6.85;2.92;;;;;;;34.55;23.43;100125.56;30843463;28;103012;-67
2023/07/17 14:29:49;;;;;;;5.38;3.28;;;;;;;33.88;23.49;100122.41;30840006;28;98244;-67
2023/07/17 14:44:49;;;;;;;5.25;2.85;;;;;;;33.03;23.77;100106.41;30841632;28;96768;-67
2023/07/17 14:59:49;;;;;;;7.57;3.55;;;;;;;32.94;23.99;100087.06;30840595;28;97094;-68
2023/07/17 15:14:50;;;;;;;4.25;2.42;;;;;;;32.53;23.91;100071.75;30839986;28;108824;-68
2023/07/17 15:29:50;;;;;;;7.32;3.20;;;;;;;31.88;24.43;100074.09;30824182;28;97421;-67
2023/07/17 15:44:51;;;;;;;7.35;3.10;;;;;;;31.65;24.02;100070.56;30762439;28;96870;-67
2023/07/17 15:59:51;;;;;;;6.70;3.10;;;;;;;31.91;23.13;100084.47;30778384;28;98383;-69
2023/07/17 16:14:51;;;;;;;8.25;3.15;;;;;;;31.48;23.43;100071.22;30851782;28;111036;-66
2023/07/17 16:29:52;;;;;;;6.22;3.30;;;;;;;31.55;23.18;100074.38;30766102;28;96788;-65
2023/07/17 16:44:52;;;;;;;5.50;3.35;;;;;;;31.22;23.27;100058.94;30831198;28;97373;-67
2023/07/17 16:59:52;;;;;;;6.40;3.00;;;;;;;30.62;23.41;100068.25;30851911;28;111131;-66
2023/07/17 17:14:53;;;;;;;5.65;3.20;;;;;;;30.00;24.52;100068.66;30844784;28;97347;-67
2023/07/17 17:29:53;;;;;;;5.05;2.58;;;;;;;29.05;25.77;100066.91;30829402;28;107537;-67
2023/07/17 17:44:53;;;;;;;6.75;3.35;;;;;;;28.57;26.10;100075.19;30854470;28;96906;-66
2023/07/17 17:59:54;;;;;;;6.40;3.40;;;;;;;28.07;26.62;100067.31;30856459;28;114150;-68
2023/07/17 18:14:54;;;;;;;5.75;3.92;;;;;;;27.69;27.35;100070.66;30855182;28;115007;-65
2023/07/17 18:29:55;;;;;;;7.05;3.78;;;;;;;27.24;28.23;100081.66;30850452;28;97477;-68
2023/07/17 18:44:55;;;;;;;7.30;3.70;;;;;;;26.66;29.20;100079.53;30823772;28;105285;-67
2023/07/17 18:59:55;;;;;;;10.45;3.88;;;;;;;26.20;30.63;100091.41;30721123;28;99782;-65
2023/07/17 19:14:56;;;;;;;6.95;3.92;;;;;;;25.86;31.46;100113.81;30766281;28;97489;-68
2023/07/17 19:29:56;;;;;;;6.38;2.83;;;;;;;25.61;31.96;100128.31;30774316;28;111594;-65
2023/07/17 19:44:56;;;;;;;9.25;3.60;;;;;;;25.39;32.35;100136.75;30803495;28;96868;-67
2023/07/17 19:59:57;;;;;;;11.00;3.90;;;;;;;25.19;34.26;100138.28;30846767;28;114303;-69
2023/07/17 20:14:57;;;;;;;17.42;4.78;;;;;;;25.24;37.94;100145.69;30828966;28;103821;-68
2023/07/17 20:29:57;;;;;;;10.07;4.50;;;;;;;25.42;39.17;100158.81;30750827;28;97393;-68
2023/07/17 20:44:58;;;;;;;8.70;5.22;;;;;;;25.39;38.86;100158.56;30883593;28;97572;-69
2023/07/17 20:59:58;;;;;;;9.52;5.60;;;;;;;24.88;38.05;100165.47;30929521;28;105759;-69
2023/07/17 21:14:58;;;;;;;9.85;5.18;;;;;;;23.81;39.39;100158.19;30923305;28;112989;-70
2023/07/17 21:29:59;;;;;;;9.55;4.90;;;;;;;23.03;40.85;100164.72;30878853;28;109890;-68
2023/07/17 21:44:59;;;;;;;12.15;5.18;;;;;;;22.43;42.85;100172.66;30923215;28;97358;-70
2023/07/17 21:59:59;;;;;;;;;;;;;;;22.03;44.13;100189.91;30904824;28;114865;-70
2023/07/17 22:14:59;;;;;;;12.02;4.78;;;;;;;21.70;44.23;100186.09;30859457;28;97412;-70
2023/07/17 22:30:00;;;;;;;10.33;4.67;;;;;;;21.84;43.87;100224.56;30896629;28;113953;-71
2023/07/17 22:45:01;;;;;;;16.85;4.32;;;;;;;22.16;42.23;100243.03;30978596;28;98945;-71
2023/07/17 23:00:01;;;;;;;9.35;4.03;;;;;;;22.03;41.98;100246.88;30899125;28;97570;-70
2023/07/17 23:15:01;;;;;;;7.55;3.70;;;;;;;22.08;41.73;100303.13;30895236;28;96780;-70
2023/07/17 23:30:02;;;;;;;8.93;3.27;;;;;;;21.83;41.07;100336.84;30997379;28;96936;-70
2023/07/17 23:45:03;;;;;;;4.55;2.72;;;;;;;21.32;41.82;100362.84;30935388;28;97620;-70
